createdAt,value
2022-12-03T00:00:47.800Z,97879.06
2022-12-03T00:10:57.258Z,97865.63
2022-12-03T00:20:59.438Z,97871.94
2022-12-03T00:31:01.727Z,97867.81
2022-12-03T00:41:03.994Z,97861.84
2022-12-03T00:51:06.499Z,97864.59
2022-12-03T01:01:08.698Z,97867.63
2022-12-03T01:11:30.856Z,97870.56
2022-12-03T01:21:33.590Z,97865.47
2022-12-03T01:31:54.144Z,97858.59
2022-12-03T01:41:58.872Z,97853.72
2022-12-03T01:52:01.091Z,97859.69
2022-12-03T02:02:35.821Z,97843.88
2022-12-03T02:12:43.950Z,97838.94
2022-12-03T02:23:04.724Z,97832.81
2022-12-03T02:33:07.349Z,97825.63
2022-12-03T02:43:10.691Z,97835.53
2022-12-03T02:53:17.773Z,97826.53
2022-12-03T03:03:21.154Z,97821.81
2022-12-03T03:13:23.552Z,97813.00
2022-12-03T03:23:26.091Z,97816.28
2022-12-03T03:33:28.868Z,97808.84
2022-12-03T03:43:34.932Z,97804.72
2022-12-03T03:53:40.914Z,97802.06
2022-12-03T04:03:43.148Z,97795.06
2022-12-03T04:13:45.480Z,97793.41
2022-12-03T04:23:47.665Z,97792.00
2022-12-03T04:34:08.589Z,97792.81
2022-12-03T04:44:29.547Z,97795.97
2022-12-03T04:54:31.803Z,97789.78
2022-12-03T05:04:34.153Z,97793.91
2022-12-03T05:14:36.317Z,97800.94
2022-12-03T05:24:38.561Z,97785.31
2022-12-03T05:34:40.767Z,97780.59
2022-12-03T05:44:42.943Z,97775.72
2022-12-03T05:54:45.110Z,97778.75
2022-12-03T06:04:47.398Z,97769.91
2022-12-03T06:14:49.600Z,97770.84
2022-12-03T06:24:52.248Z,97772.44
2022-12-03T06:34:54.943Z,97774.97
2022-12-03T06:44:57.443Z,97779.94
2022-12-03T06:54:59.811Z,97785.28
2022-12-03T07:05:02.151Z,97779.78
2022-12-03T07:15:04.710Z,97757.03
2022-12-03T07:25:07.655Z,97759.16
2022-12-03T07:35:09.912Z,97766.19
2022-12-03T07:45:12.163Z,97759.84
2022-12-03T07:55:14.419Z,97757.44
2022-12-03T08:05:16.676Z,97750.81
2022-12-03T08:15:21.912Z,97748.06
2022-12-03T08:25:30.315Z,97743.41
2022-12-03T08:35:32.543Z,97741.19
2022-12-03T08:45:40.488Z,97745.78
2022-12-03T08:55:47.869Z,97759.97
2022-12-03T09:05:51.035Z,97745.56
2022-12-03T09:15:53.205Z,97751.53
2022-12-03T09:25:55.440Z,97750.91
2022-12-03T09:35:57.729Z,97751.31
2022-12-03T09:46:00.535Z,97755.41
2022-12-03T09:56:02.920Z,97752.88
2022-12-03T10:06:05.329Z,97746.88
2022-12-03T10:16:12.595Z,97744.16
2022-12-03T10:26:14.916Z,97724.22
2022-12-03T10:36:19.281Z,97725.56
2022-12-03T10:46:22.581Z,97730.44
2022-12-03T10:56:26.490Z,97717.50
2022-12-03T11:06:31.645Z,97714.72
2022-12-03T11:16:39.795Z,97710.75
2022-12-03T11:26:41.972Z,97695.69
2022-12-03T11:37:21.844Z,97709.25
2022-12-03T11:47:24.095Z,97694.44
2022-12-03T11:57:33.700Z,97684.03
2022-12-03T12:07:36.805Z,97681.03
2022-12-03T12:17:39.083Z,97680.19
2022-12-03T12:27:45.591Z,97665.72
2022-12-03T12:38:00.052Z,97666.00
2022-12-03T12:48:24.599Z,97676.22
2022-12-03T12:58:31.204Z,97660.97
2022-12-03T13:08:43.031Z,97665.16
2022-12-03T13:18:53.205Z,97661.31
2022-12-03T13:28:57.926Z,97667.47
2022-12-03T13:39:00.327Z,97653.44
2022-12-03T13:49:02.616Z,97658.97
2022-12-03T13:59:05.226Z,97656.28
2022-12-03T14:09:07.555Z,97654.06
2022-12-03T14:19:09.777Z,97649.97
2022-12-03T14:29:11.956Z,97648.97
2022-12-03T14:39:14.258Z,97638.69
2022-12-03T14:49:16.854Z,97638.06
2022-12-03T14:59:24.378Z,97652.03
2022-12-03T15:09:30.199Z,97659.25
2022-12-03T15:19:33.684Z,97654.88
2022-12-03T15:29:35.920Z,97659.81
2022-12-03T15:39:39.548Z,97659.00
2022-12-03T15:49:44.965Z,97659.00
2022-12-03T15:59:47.168Z,97658.19
2022-12-03T16:09:49.423Z,97649.25
2022-12-03T16:19:51.773Z,97653.69
2022-12-03T16:29:56.358Z,97643.75
2022-12-03T16:39:58.868Z,97651.19
2022-12-03T16:50:03.679Z,97641.88
2022-12-03T17:00:07.522Z,97640.34
2022-12-03T17:10:10.318Z,97636.22
2022-12-03T17:20:14.757Z,97645.91
2022-12-03T17:30:17.620Z,97636.97
2022-12-03T17:40:20.074Z,97638.38
2022-12-03T17:50:22.245Z,97634.56
2022-12-03T18:00:24.495Z,97646.41
2022-12-03T18:10:28.262Z,97635.63
2022-12-03T18:20:30.516Z,97631.38
2022-12-03T18:30:32.728Z,97642.47
2022-12-03T18:40:35.223Z,97622.22
2022-12-03T18:50:39.113Z,97623.28
2022-12-03T19:00:42.745Z,97615.50
2022-12-03T19:10:45.695Z,97612.28
2022-12-03T19:20:48.356Z,97609.06
2022-12-03T19:31:02.198Z,97609.91
2022-12-03T19:41:06.787Z,97618.94
2022-12-03T19:51:32.878Z,97613.88
2022-12-03T20:01:34.761Z,97615.19
2022-12-03T20:11:37.853Z,97608.81
2022-12-03T20:21:40.836Z,97612.47
2022-12-03T20:31:43.280Z,97623.56
2022-12-03T20:41:45.476Z,97617.69
2022-12-03T20:51:51.517Z,97613.81
2022-12-03T21:01:53.874Z,97600.72
2022-12-03T21:11:56.325Z,97598.03
2022-12-03T21:21:58.570Z,97592.53
2022-12-03T21:40:12.740Z,97580.22
2022-12-03T21:50:14.995Z,97579.19
2022-12-03T22:00:17.465Z,97576.13
2022-12-03T22:10:19.655Z,97570.97
2022-12-03T22:20:21.884Z,97551.88
2022-12-03T22:30:24.091Z,97553.09
2022-12-03T22:40:26.305Z,97536.19
2022-12-03T22:50:28.460Z,97538.66
2022-12-03T23:00:33.287Z,97533.31
2022-12-03T23:10:41.876Z,97532.47
2022-12-03T23:20:46.684Z,97519.09
2022-12-03T23:30:48.889Z,97514.16
2022-12-03T23:40:53.107Z,97507.97
2022-12-03T23:50:55.321Z,97502.81
